Time;durP1;ratioP1;P1;durP2;ratioP2;P2;SDS_P1;SDS_P2;PMS_P1;PMS_P2;Temp;Humidity;BMP_temperature;BMP_pressure;BME280_temperature;BME280_humidity;BME280_pressure;Samples;Min_cycle;Max_cycle;Signal;HPM_P1;HPM_P2
2024/01/16 00:02:03;;;;;;;18.25;8.30;;;;;;;-1.09;100.00;100774.09;5047658;28;20163;-70
2024/01/16 00:04:31;;;;;;;17.80;8.00;;;;;;;-1.11;100.00;100789.59;5033472;28;20364;-70
2024/01/16 00:06:58;;;;;;;14.48;8.18;;;;;;;-1.10;100.00;100778.38;5035714;28;20038;-70
2024/01/16 00:09:25;;;;;;;16.42;8.65;;;;;;;-1.11;100.00;100774.06;5029598;28;20076;-70
2024/01/16 00:11:52;;;;;;;17.80;8.45;;;;;;;-1.12;100.00;100780.06;5028091;28;20053;-69
2024/01/16 00:14:19;;;;;;;16.48;8.07;;;;;;;-1.13;100.00;100775.78;5023701;28;20046;-69
2024/01/16 00:16:47;;;;;;;17.20;8.23;;;;;;;-1.11;100.00;100771.47;5060776;28;20131;-69
2024/01/16 00:19:15;;;;;;;14.95;8.00;;;;;;;-1.12;100.00;100774.03;5029341;28;20405;-69
2024/01/16 00:21:46;;;;;;;17.45;7.55;;;;;;;-1.11;100.00;100775.78;5034285;28;20572;-69
2024/01/16 00:24:14;;;;;;;14.43;7.63;;;;;;;-1.10;100.00;100777.53;5034939;28;20516;-69
2024/01/16 00:26:41;;;;;;;14.73;7.10;;;;;;;-1.10;100.00;100772.34;5033823;28;20075;-70
2024/01/16 00:29:09;;;;;;;12.50;7.25;;;;;;;-1.13;100.00;100772.28;5037217;28;20116;-69
2024/01/16 00:31:36;;;;;;;15.57;6.72;;;;;;;-1.12;100.00;100780.06;5024485;28;20058;-69
2024/01/16 00:34:03;;;;;;;14.35;6.97;;;;;;;-1.14;100.00;100789.56;5029643;28;20116;-69
2024/01/16 00:36:30;;;;;;;18.33;6.68;;;;;;;-1.13;100.00;100782.66;5016504;28;20136;-69
2024/01/16 00:38:58;;;;;;;14.38;6.85;;;;;;;-1.09;100.00;100779.28;5027239;28;20127;-69
2024/01/16 00:41:25;;;;;;;19.55;7.82;;;;;;;-1.05;100.00;100781.06;5029413;28;20051;-68
2024/01/16 00:43:52;;;;;;;14.55;7.00;;;;;;;-1.04;100.00;100780.22;5029526;28;20072;-68
2024/01/16 00:46:20;;;;;;;12.13;6.53;;;;;;;-1.02;100.00;100785.44;5036141;28;20088;-68
2024/01/16 00:48:48;;;;;;;12.82;6.65;;;;;;;-1.00;100.00;100775.94;5039822;28;20049;-68
2024/01/16 00:51:15;;;;;;;16.95;6.90;;;;;;;-0.99;100.00;100781.16;5028071;28;20053;-69
2024/01/16 00:53:43;;;;;;;14.45;6.80;;;;;;;-1.01;100.00;100784.56;5029063;28;20048;-68
2024/01/16 00:56:12;;;;;;;14.60;6.25;;;;;;;-1.03;100.00;100788.84;5026696;28;20128;-69
2024/01/16 00:58:39;;;;;;;12.60;6.28;;;;;;;-1.04;100.00;100792.28;5009634;28;20046;-68
2024/01/16 01:01:06;;;;;;;12.85;6.40;;;;;;;-1.08;100.00;100793.06;5026095;28;20077;-68
2024/01/16 01:03:34;;;;;;;16.25;6.10;;;;;;;-1.10;100.00;100798.22;5029520;28;20069;-69
2024/01/16 01:06:01;;;;;;;12.05;5.80;;;;;;;-1.11;100.00;100799.94;5027394;28;20069;-69
2024/01/16 01:08:28;;;;;;;11.48;5.93;;;;;;;-1.07;100.00;100802.56;5028822;28;20049;-68
2024/01/16 01:10:56;;;;;;;11.82;5.47;;;;;;;-1.04;100.00;100808.69;5020693;28;20134;-68
2024/01/16 01:13:24;;;;;;;13.45;6.50;;;;;;;-0.99;100.00;100804.47;5025192;28;20066;-69
2024/01/16 01:15:52;;;;;;;10.15;5.47;;;;;;;-0.90;100.00;100808.91;5027813;28;20045;-68
2024/01/16 01:18:19;;;;;;;13.18;6.05;;;;;;;-0.83;100.00;100810.75;5043173;28;20048;-68
2024/01/16 01:20:47;;;;;;;14.65;6.65;;;;;;;-0.76;100.00;100813.44;5032671;28;20115;-68
2024/01/16 01:23:15;;;;;;;9.30;5.10;;;;;;;-0.73;100.00;100808.31;5041321;28;20044;-69
2024/01/16 01:25:42;;;;;;;13.52;6.35;;;;;;;-0.70;100.00;100810.94;5034673;28;20051;-69
2024/01/16 01:28:11;;;;;;;9.98;6.03;;;;;;;-0.69;100.00;100803.22;5043834;28;20041;-68
2024/01/16 01:30:38;;;;;;;9.55;5.45;;;;;;;-0.67;100.00;100808.41;5037353;28;20651;-69
2024/01/16 01:33:06;;;;;;;14.70;5.90;;;;;;;-0.64;100.00;100813.63;5032186;28;20046;-68
2024/01/16 01:35:33;;;;;;;12.75;5.40;;;;;;;-0.62;100.00;100814.53;5051746;28;20045;-69
2024/01/16 01:38:00;;;;;;;11.85;5.82;;;;;;;-0.60;100.00;100815.41;5036173;28;20055;-69
2024/01/16 01:40:28;;;;;;;7.93;5.43;;;;;;;-0.56;100.00;100811.16;5023244;28;20061;-69
2024/01/16 01:42:55;;;;;;;16.42;5.90;;;;;;;-0.56;100.00;100816.34;5028008;28;20041;-69
2024/01/16 01:45:22;;;;;;;9.05;5.60;;;;;;;-0.56;100.00;100813.75;5034495;28;20459;-69
2024/01/16 01:47:50;;;;;;;8.95;5.15;;;;;;;-0.54;100.00;100812.03;5036124;28;20187;-69
2024/01/16 01:50:17;;;;;;;10.05;5.78;;;;;;;-0.54;100.00;100820.69;5029839;28;20038;-69
2024/01/16 01:52:45;;;;;;;17.02;5.80;;;;;;;-0.55;100.00;100818.94;5041582;28;20597;-69
2024/01/16 01:55:14;;;;;;;9.63;5.30;;;;;;;-0.55;100.00;100821.53;5035466;28;20268;-69
2024/01/16 01:57:42;;;;;;;12.77;5.97;;;;;;;-0.55;100.00;100815.47;5033679;28;20042;-68
2024/01/16 02:00:11;;;;;;;10.80;5.10;;;;;;;-0.54;100.00;100817.22;5025364;28;20047;-68
2024/01/16 02:02:42;;;;;;;10.75;5.40;;;;;;;-0.57;100.00;100809.44;5027347;28;20625;-68
2024/01/16 02:05:10;;;;;;;9.55;5.18;;;;;;;-0.63;100.00;100810.19;5025975;28;20041;-68
2024/01/16 02:07:38;;;;;;;10.15;5.45;;;;;;;-0.67;100.00;100814.47;5034158;28;20520;-68
2024/01/16 02:10:06;;;;;;;12.13;5.55;;;;;;;-0.71;100.00;100822.16;5036567;28;20120;-68
2024/01/16 02:12:33;;;;;;;14.27;6.50;;;;;;;-0.76;100.00;100819.47;5028125;28;20051;-68
2024/01/16 02:15:00;;;;;;;11.88;5.80;;;;;;;-0.76;100.00;100824.66;5029961;28;20049;-68
2024/01/16 02:17:27;;;;;;;12.75;5.35;;;;;;;-0.77;100.00;100827.22;5009909;28;20104;-68
2024/01/16 02:19:55;;;;;;;13.52;5.45;;;;;;;-0.80;100.00;100828.91;5016452;28;20049;-67
2024/01/16 02:22:28;;;;;;;12.55;5.75;;;;;;;-0.81;100.00;100816.81;5025230;28;20041;-68
2024/01/16 02:24:57;;;;;;;13.00;5.72;;;;;;;-0.82;100.00;100816.78;5040716;28;20054;-68
2024/01/16 02:27:24;;;;;;;14.43;5.50;;;;;;;-0.84;100.00;100821.97;5027484;28;20453;-67
2024/01/16 02:29:51;;;;;;;14.68;6.32;;;;;;;-0.86;100.00;100828.81;5031493;28;20048;-68
2024/01/16 02:32:18;;;;;;;10.85;5.90;;;;;;;-0.85;100.00;100832.25;5029918;28;20049;-68
2024/01/16 02:34:46;;;;;;;15.40;5.82;;;;;;;-0.84;100.00;100834.91;5026722;28;20041;-68
2024/01/16 02:37:13;;;;;;;13.27;6.20;;;;;;;-0.82;100.00;100833.22;5029058;28;20041;-67
2024/01/16 02:39:40;;;;;;;16.50;6.10;;;;;;;-0.81;100.00;100831.47;5045605;28;20149;-68
2024/01/16 02:42:08;;;;;;;15.10;6.40;;;;;;;-0.79;100.00;100833.25;5032231;28;20034;-68
2024/01/16 02:44:35;;;;;;;13.70;6.30;;;;;;;-0.76;100.00;100837.59;5035205;28;20055;-69
2024/01/16 02:47:02;;;;;;;12.85;6.55;;;;;;;-0.74;100.00;100830.72;5049781;28;20121;-69
2024/01/16 02:49:32;;;;;;;15.52;6.05;;;;;;;-0.71;100.00;100838.56;5037299;28;20045;-69
2024/01/16 02:51:59;;;;;;;16.00;6.47;;;;;;;-0.68;100.00;100840.31;5042507;28;20045;-69
2024/01/16 02:54:26;;;;;;;14.80;7.15;;;;;;;-0.67;100.00;100839.47;5049685;28;20513;-69
2024/01/16 02:56:53;;;;;;;15.50;7.18;;;;;;;-0.63;100.00;100842.13;5031981;28;20064;-69
2024/01/16 02:59:20;;;;;;;16.73;6.43;;;;;;;-0.58;100.00;100844.78;5032752;28;20055;-69
2024/01/16 03:01:47;;;;;;;15.50;6.75;;;;;;;-0.55;100.00;100837.06;5042334;28;20051;-68
2024/01/16 03:04:14;;;;;;;14.77;6.78;;;;;;;-0.54;100.00;100832.75;5038869;28;20129;-68
2024/01/16 03:06:41;;;;;;;17.23;7.05;;;;;;;-0.52;100.00;100838.84;5030613;28;20046;-68
2024/01/16 03:09:09;;;;;;;12.50;6.15;;;;;;;-0.54;100.00;100833.66;5041881;28;20053;-67
2024/01/16 03:11:36;;;;;;;18.00;7.53;;;;;;;-0.54;100.00;100828.47;5041143;28;20521;-67
2024/01/16 03:14:05;;;;;;;14.93;6.07;;;;;;;-0.56;100.00;100835.34;5027597;28;20040;-67
2024/01/16 03:16:32;;;;;;;14.25;5.82;;;;;;;-0.58;100.00;100836.16;5038359;28;20471;-67
2024/01/16 03:18:59;;;;;;;15.98;6.47;;;;;;;-0.58;100.00;100841.34;5035422;28;20045;-68
2024/01/16 03:21:27;;;;;;;14.25;5.50;;;;;;;-0.57;100.00;100843.94;5029798;28;20045;-68
2024/01/16 03:23:54;;;;;;;11.25;5.55;;;;;;;-0.55;100.00;100847.44;5028341;28;20061;-67
2024/01/16 03:26:22;;;;;;;11.23;4.78;;;;;;;-0.51;100.00;100848.34;5012048;28;20053;-69
2024/01/16 03:28:49;;;;;;;12.07;5.03;;;;;;;-0.48;100.00;100843.22;5041900;28;20095;-69
2024/01/16 03:31:17;;;;;;;8.73;4.78;;;;;;;-0.47;100.00;100851.00;5025245;28;20061;-70
2024/01/16 03:33:44;;;;;;;13.73;4.85;;;;;;;-0.43;100.00;100851.94;5033519;28;20049;-69
2024/01/16 03:36:12;;;;;;;13.70;5.75;;;;;;;-0.39;100.00;100848.53;5032156;28;20116;-69
2024/01/16 03:38:43;;;;;;;11.07;4.47;;;;;;;-0.36;100.00;100845.13;5038935;28;20061;-70
2024/01/16 03:41:12;;;;;;;8.82;4.72;;;;;;;-0.35;100.00;100839.09;5024732;28;20045;-70
2024/01/16 03:43:40;;;;;;;11.05;4.55;;;;;;;-0.35;100.00;100839.09;5042696;28;20685;-68
2024/01/16 03:46:10;;;;;;;12.18;4.32;;;;;;;-0.32;100.00;100831.38;5033144;28;20045;-68
2024/01/16 03:48:37;;;;;;;11.30;4.10;;;;;;;-0.32;100.00;100833.97;5051152;28;20049;-68
2024/01/16 03:51:05;;;;;;;12.48;4.50;;;;;;;-0.30;100.00;100827.06;5036833;28;20083;-68
2024/01/16 03:53:32;;;;;;;11.55;3.70;;;;;;;-0.27;100.00;100821.06;5044712;28;20119;-68
2024/01/16 03:56:00;;;;;;;9.98;3.92;;;;;;;-0.26;100.00;100815.91;5056797;28;20500;-68
2024/01/16 03:58:27;;;;;;;9.48;3.85;;;;;;;-0.24;100.00;100814.22;5062250;28;20504;-68
2024/01/16 04:00:54;;;;;;;11.25;3.92;;;;;;;-0.23;100.00;100815.94;5033502;28;20045;-67
2024/01/16 04:03:21;;;;;;;6.68;4.00;;;;;;;-0.21;100.00;100816.84;5029799;28;20068;-67
2024/01/16 04:05:49;;;;;;;9.98;4.10;;;;;;;-0.21;100.00;100803.91;5027879;28;20045;-68
2024/01/16 04:08:16;;;;;;;8.35;3.90;;;;;;;-0.22;100.00;100814.22;5029414;28;20099;-67
2024/01/16 04:10:43;;;;;;;9.02;4.45;;;;;;;-0.24;100.00;100805.53;5026016;28;20045;-68
2024/01/16 04:13:10;;;;;;;13.90;5.35;;;;;;;-0.30;100.00;100806.34;5027676;28;20477;-68
2024/01/16 04:15:39;;;;;;;6.50;3.15;;;;;;;-0.38;100.00;100805.34;5036915;28;20047;-68
2024/01/16 04:18:06;;;;;;;6.95;3.42;;;;;;;-0.44;100.00;100800.97;5038106;28;20065;-68
2024/01/16 04:20:34;;;;;;;9.45;4.45;;;;;;;-0.51;100.00;100807.75;5033137;28;20052;-67
2024/01/16 04:23:01;;;;;;;9.00;3.30;;;;;;;-0.57;100.00;100794.75;5038493;28;20041;-68
2024/01/16 04:25:28;;;;;;;7.18;3.00;;;;;;;-0.58;100.00;100805.94;5030448;28;20065;-68
2024/01/16 04:27:55;;;;;;;8.77;3.00;;;;;;;-0.61;100.00;100805.88;5033279;28;20049;-68
2024/01/16 04:30:23;;;;;;;6.85;2.95;;;;;;;-0.63;100.00;100805.88;5044021;28;20144;-68
2024/01/16 04:32:50;;;;;;;9.15;2.95;;;;;;;-0.63;100.00;100802.44;5035808;28;20111;-68
2024/01/16 04:35:18;;;;;;;8.95;3.30;;;;;;;-0.66;100.00;100807.56;5030858;28;20073;-68
2024/01/16 04:37:45;;;;;;;7.70;2.63;;;;;;;-0.66;100.00;100807.56;5037450;28;20053;-68
2024/01/16 04:40:12;;;;;;;7.63;2.90;;;;;;;-0.66;100.00;100810.13;5019721;28;20068;-68
2024/01/16 04:42:39;;;;;;;9.23;3.67;;;;;;;-0.65;100.00;100804.97;5021269;28;20125;-68
2024/01/16 04:45:07;;;;;;;6.28;2.95;;;;;;;-0.64;100.00;100811.03;5050960;28;20041;-67
2024/01/16 04:47:34;;;;;;;7.97;2.60;;;;;;;-0.64;100.00;100809.31;5029995;28;20049;-68
2024/01/16 04:50:01;;;;;;;11.48;2.80;;;;;;;-0.66;100.00;100811.00;5034086;28;20048;-69
2024/01/16 04:52:28;;;;;;;8.60;2.88;;;;;;;-0.67;100.00;100821.34;5028290;28;20139;-69
2024/01/16 04:54:55;;;;;;;5.93;3.38;;;;;;;-0.69;100.00;100813.56;5031522;28;20493;-68
2024/01/16 04:57:23;;;;;;;8.25;3.13;;;;;;;-0.67;100.00;100823.94;5044230;28;20041;-68
2024/01/16 04:59:50;;;;;;;13.60;3.78;;;;;;;-0.65;100.00;100812.75;5028388;28;20188;-68
2024/01/16 05:02:18;;;;;;;8.85;3.63;;;;;;;-0.58;100.00;100813.72;5037206;28;20077;-68
2024/01/16 05:04:49;;;;;;;11.15;4.10;;;;;;;-0.53;100.00;100809.50;5047963;28;20045;-68
2024/01/16 05:07:16;;;;;;;10.00;5.07;;;;;;;-0.48;100.00;100810.41;5030425;28;20045;-68
2024/01/16 05:09:45;;;;;;;13.82;5.05;;;;;;;-0.45;100.00;100812.16;5024268;28;20044;-68
2024/01/16 05:12:13;;;;;;;13.55;5.40;;;;;;;-0.41;100.00;100808.78;5047511;28;20145;-68
2024/01/16 05:14:40;;;;;;;15.68;6.00;;;;;;;-0.38;100.00;100808.84;5026796;28;20037;-68
2024/01/16 05:17:08;;;;;;;12.32;6.40;;;;;;;-0.36;100.00;100809.75;5010286;28;20559;-68
2024/01/16 05:19:35;;;;;;;18.60;6.55;;;;;;;-0.32;100.00;100808.91;5021313;28;20057;-68
2024/01/16 05:22:03;;;;;;;14.18;6.72;;;;;;;-0.29;100.00;100799.44;5016691;28;20045;-68
2024/01/16 05:24:33;;;;;;;16.08;7.30;;;;;;;-0.27;100.00;100797.75;5046735;28;20118;-68
2024/01/16 05:27:00;;;;;;;19.15;8.15;;;;;;;-0.26;100.00;100792.59;5038802;28;20057;-68
2024/01/16 05:29:28;;;;;;;16.00;8.70;;;;;;;-0.26;100.00;100782.22;5039093;28;20045;-68
2024/01/16 05:31:55;;;;;;;20.38;8.00;;;;;;;-0.25;100.00;100778.78;5026600;28;20517;-69
2024/01/16 05:34:22;;;;;;;17.75;8.05;;;;;;;-0.23;100.00;100771.91;5033715;28;20124;-67
2024/01/16 05:36:50;;;;;;;16.55;8.10;;;;;;;-0.23;100.00;100764.13;5027368;28;20071;-68
2024/01/16 05:39:17;;;;;;;22.70;9.15;;;;;;;-0.23;100.00;100769.31;5018926;28;20037;-68
2024/01/16 05:41:44;;;;;;;19.27;9.40;;;;;;;-0.16;100.00;100767.66;4987075;28;20057;-69
2024/01/16 05:44:11;;;;;;;19.77;10.25;;;;;;;-0.05;100.00;100773.84;4993974;28;20084;-69
2024/01/16 05:46:38;;;;;;;25.33;11.00;;;;;;;0.08;100.00;100771.41;4989675;28;20090;-69
2024/01/16 05:49:05;;;;;;;23.17;10.60;;;;;;;0.19;100.00;100774.13;4985513;28;20066;-68
2024/01/16 05:51:33;;;;;;;21.48;10.68;;;;;;;0.37;100.00;100771.72;4987678;28;20129;-68
2024/01/16 05:54:00;;;;;;;25.50;10.18;;;;;;;0.50;100.00;100767.53;4989102;28;20129;-68
2024/01/16 05:56:27;;;;;;;23.92;10.63;;;;;;;0.56;100.00;100764.97;4987264;28;20051;-67
2024/01/16 05:58:54;;;;;;;22.90;10.68;;;;;;;0.66;100.00;100765.97;4987716;28;20072;-68
2024/01/16 06:01:21;;;;;;;19.42;10.68;;;;;;;0.76;100.00;100766.91;4989125;28;20054;-68
2024/01/16 06:03:49;;;;;;;18.98;10.18;;;;;;;0.81;100.00;100762.63;4984532;28;20044;-68
2024/01/16 06:06:16;;;;;;;20.42;9.88;;;;;;;0.86;100.00;100753.16;4984358;28;20045;-68
2024/01/16 06:08:44;;;;;;;20.20;10.02;;;;;;;0.95;100.00;100759.28;4987023;28;20042;-67
2024/01/16 06:11:15;;;;;;;16.50;9.48;;;;;;;0.97;100.00;100745.44;4979974;28;20522;-67
2024/01/16 06:13:44;;;;;;;17.90;9.27;;;;;;;0.91;100.00;100748.88;4985839;28;20122;-71
2024/01/16 06:16:11;;;;;;;20.33;9.35;;;;;;;0.75;100.00;100757.41;4986478;28;20040;-67
2024/01/16 06:18:38;;;;;;;20.38;9.30;;;;;;;0.59;100.00;100756.38;4984864;28;20137;-67
2024/01/16 06:21:05;;;;;;;19.85;9.02;;;;;;;0.44;100.00;100760.56;4987282;28;20057;-66
2024/01/16 06:23:33;;;;;;;22.17;9.27;;;;;;;0.35;100.00;100759.59;4987212;28;20141;-67
2024/01/16 06:26:00;;;;;;;20.02;9.05;;;;;;;0.26;100.00;100761.22;4982956;28;20057;-66
2024/01/16 06:28:27;;;;;;;17.92;8.68;;;;;;;0.20;100.00;100762.91;4985565;28;20042;-66
2024/01/16 06:30:54;;;;;;;18.02;9.18;;;;;;;0.12;100.00;100773.19;4982488;28;20042;-67
2024/01/16 06:33:25;;;;;;;25.38;11.20;;;;;;;0.08;100.00;100768.81;4985456;28;20048;-66
2024/01/16 06:35:55;;;;;;;19.38;12.15;;;;;;;0.02;100.00;100772.19;4986293;28;20093;-66
2024/01/16 06:38:23;;;;;;;25.80;13.45;;;;;;;-0.01;100.00;100773.03;4985538;28;20376;-66
2024/01/16 06:40:51;;;;;;;17.20;9.55;;;;;;;-0.06;100.00;100773.81;4986469;28;20046;-66
2024/01/16 06:43:18;;;;;;;18.58;10.15;;;;;;;-0.07;100.00;100772.06;4987842;28;20074;-66
2024/01/16 06:45:45;;;;;;;19.05;9.30;;;;;;;-0.09;100.00;100774.66;4986412;28;20125;-66
2024/01/16 06:48:12;;;;;;;20.77;11.80;;;;;;;-0.11;100.00;100776.38;4987071;28;20038;-66
2024/01/16 06:50:39;;;;;;;22.00;9.55;;;;;;;-0.14;100.00;100771.13;4989196;28;20046;-66
2024/01/16 06:53:07;;;;;;;37.17;21.35;;;;;;;-0.14;100.00;100772.88;4988301;28;20050;-66
2024/01/16 06:55:34;;;;;;;26.60;15.52;;;;;;;-0.16;100.00;100762.50;4985032;28;20134;-67
2024/01/16 06:58:01;;;;;;;17.85;9.23;;;;;;;-0.16;100.00;100767.66;4986547;28;20721;-66
2024/01/16 07:00:28;;;;;;;23.45;10.90;;;;;;;-0.19;100.00;100768.47;4988353;28;20070;-66
2024/01/16 07:02:55;;;;;;;19.77;9.57;;;;;;;-0.18;100.00;100777.16;4987944;28;20429;-66
2024/01/16 07:05:23;;;;;;;19.52;9.98;;;;;;;-0.20;100.00;100778.84;4985794;28;20459;-66
2024/01/16 07:07:50;;;;;;;19.55;9.95;;;;;;;-0.21;100.00;100782.28;4988493;28;20054;-66
2024/01/16 07:10:22;;;;;;;17.65;9.38;;;;;;;-0.20;100.00;100778.84;4985798;28;20112;-66
2024/01/16 07:12:51;;;;;;;29.17;16.75;;;;;;;-0.23;100.00;100777.09;4987783;28;20046;-66
2024/01/16 07:15:18;;;;;;;20.17;10.02;;;;;;;-0.23;100.00;100779.69;4987722;28;20101;-67
2024/01/16 07:17:46;;;;;;;24.02;11.13;;;;;;;-0.24;100.00;100775.34;4985649;28;20243;-67
2024/01/16 07:20:13;;;;;;;20.27;10.95;;;;;;;-0.23;100.00;100781.38;4987293;28;20097;-68
2024/01/16 07:22:40;;;;;;;18.98;8.63;;;;;;;-0.25;100.00;100785.66;4988852;28;20042;-66
2024/01/16 07:25:08;;;;;;;21.17;8.52;;;;;;;-0.25;100.00;100790.84;4985911;28;20066;-67
2024/01/16 07:27:35;;;;;;;15.25;7.88;;;;;;;-0.27;100.00;100790.84;4988649;28;20133;-69
2024/01/16 07:30:06;;;;;;;15.60;8.60;;;;;;;-0.27;100.00;100795.16;4988224;28;20069;-66
2024/01/16 07:32:34;;;;;;;16.45;8.02;;;;;;;-0.29;100.00;100796.84;4984044;28;20077;-66
2024/01/16 07:35:02;;;;;;;14.48;8.35;;;;;;;-0.29;100.00;100794.25;4985905;28;20040;-66
2024/01/16 07:37:30;;;;;;;18.98;9.85;;;;;;;-0.33;100.00;100796.81;4988277;28;20137;-66
2024/01/16 07:39:58;;;;;;;21.08;9.60;;;;;;;-0.35;100.00;100797.63;4990149;28;20045;-67
2024/01/16 07:42:26;;;;;;;18.92;8.15;;;;;;;-0.35;100.00;100803.69;4989964;28;20517;-66
2024/01/16 07:44:54;;;;;;;20.08;8.07;;;;;;;-0.36;100.00;100801.97;4992337;28;20688;-66
2024/01/16 07:47:22;;;;;;;15.85;8.80;;;;;;;-0.35;100.00;100802.81;4990380;28;20050;-68
2024/01/16 07:49:49;;;;;;;14.95;8.18;;;;;;;-0.37;100.00;100796.75;4991401;28;20049;-66
2024/01/16 07:52:16;;;;;;;17.70;6.82;;;;;;;-0.36;100.00;100804.56;4991390;28;20523;-66
2024/01/16 07:54:43;;;;;;;14.85;9.05;;;;;;;-0.35;100.00;100815.78;4990326;28;20038;-66
2024/01/16 07:57:11;;;;;;;17.63;8.98;;;;;;;-0.36;100.00;100804.56;4990905;28;20049;-66
2024/01/16 07:59:38;;;;;;;15.32;8.70;;;;;;;-0.37;100.00;100807.09;4991384;28;20047;-66
2024/01/16 08:02:06;;;;;;;23.08;10.57;;;;;;;-0.38;100.00;100805.34;4990729;28;20046;-66
2024/01/16 08:04:33;;;;;;;17.23;8.18;;;;;;;-0.40;100.00;100807.94;4991996;28;20072;-66
2024/01/16 08:07:00;;;;;;;13.68;6.30;;;;;;;-0.42;100.00;100809.63;4990862;28;20060;-66
2024/01/16 08:09:28;;;;;;;15.73;6.63;;;;;;;-0.41;100.00;100800.16;4990923;28;20097;-66
2024/01/16 08:11:55;;;;;;;11.52;6.43;;;;;;;-0.40;100.00;100809.63;4990170;28;20286;-66
2024/01/16 08:14:22;;;;;;;12.23;6.65;;;;;;;-0.40;100.00;100813.13;4990435;28;20085;-66
2024/01/16 08:16:49;;;;;;;12.90;6.25;;;;;;;-0.42;100.00;100807.03;4990685;28;20070;-66
2024/01/16 08:19:16;;;;;;;15.13;6.35;;;;;;;-0.39;100.00;100811.38;4989604;28;20057;-66
2024/01/16 08:21:44;;;;;;;16.80;8.50;;;;;;;-0.39;100.00;100812.28;4990967;28;20546;-66
2024/01/16 08:24:11;;;;;;;21.95;10.52;;;;;;;-0.38;100.00;100818.31;4990385;28;20057;-68
2024/01/16 08:26:38;;;;;;;13.40;7.18;;;;;;;-0.37;100.00;100820.06;4989484;28;20617;-67
2024/01/16 08:29:05;;;;;;;17.98;11.63;;;;;;;-0.35;100.00;100823.53;4991346;28;20637;-66
2024/01/16 08:31:32;;;;;;;19.73;9.57;;;;;;;-0.35;100.00;100815.78;4989107;28;20576;-67
2024/01/16 08:33:59;;;;;;;16.02;6.70;;;;;;;-0.30;100.00;100823.59;4990896;28;20479;-68
2024/01/16 08:36:27;;;;;;;13.65;5.45;;;;;;;-0.30;100.00;100827.06;4991120;28;20046;-67
2024/01/16 08:38:55;;;;;;;8.75;5.05;;;;;;;-0.32;100.00;100821.88;4989225;28;20057;-66
2024/01/16 08:41:22;;;;;;;13.63;5.10;;;;;;;-0.28;100.00;100829.69;4986051;28;20068;-65
2024/01/16 08:43:50;;;;;;;13.35;5.40;;;;;;;-0.26;100.00;100825.41;4990778;28;20050;-65
2024/01/16 08:46:19;;;;;;;10.18;5.05;;;;;;;-0.23;100.00;100825.44;4989135;28;20414;-67
2024/01/16 08:48:46;;;;;;;12.52;5.18;;;;;;;-0.19;100.00;100824.63;4990694;28;20038;-67
2024/01/16 08:51:14;;;;;;;15.73;5.80;;;;;;;-0.18;100.00;100827.22;4990255;28;20046;-67
2024/01/16 08:53:42;;;;;;;10.20;4.80;;;;;;;-0.20;100.00;100825.47;4990312;28;20042;-67
2024/01/16 08:56:12;;;;;;;11.25;4.65;;;;;;;-0.18;100.00;100819.47;4989975;28;20630;-68
2024/01/16 08:58:40;;;;;;;12.23;5.45;;;;;;;-0.15;100.00;100829.00;4990346;28;20499;-67
2024/01/16 09:01:07;;;;;;;18.05;8.48;;;;;;;-0.14;100.00;100822.09;4990525;28;20038;-68
2024/01/16 09:03:35;;;;;;;38.60;14.77;;;;;;;-0.13;100.00;100816.94;4989616;28;20105;-68
2024/01/16 09:06:03;;;;;;;52.33;16.40;;;;;;;-0.10;100.00;100816.97;4989956;28;20116;-67
2024/01/16 09:08:31;;;;;;;139.00;37.03;;;;;;;-0.07;100.00;100814.44;4989761;28;20116;-66
2024/01/16 09:10:59;;;;;;;19.95;11.73;;;;;;;-0.04;100.00;100814.47;4990106;28;20052;-65
2024/01/16 09:13:26;;;;;;;13.32;5.68;;;;;;;0.01;100.00;100827.47;4989303;28;20046;-68
2024/01/16 09:15:56;;;;;;;17.20;9.95;;;;;;;0.04;100.00;100824.06;4987844;28;20046;-67
2024/01/16 09:18:23;;;;;;;20.08;7.07;;;;;;;0.07;100.00;100819.78;4989570;28;20081;-65
2024/01/16 09:20:50;;;;;;;16.38;5.15;;;;;;;0.11;100.00;100829.34;4989616;28;20116;-65
2024/01/16 09:23:17;;;;;;;9.43;4.72;;;;;;;0.13;100.00;100822.44;4989701;28;20129;-68
2024/01/16 09:25:44;;;;;;;12.95;4.63;;;;;;;0.13;100.00;100827.63;4989485;28;20078;-68
2024/01/16 09:28:14;;;;;;;12.93;5.03;;;;;;;0.16;100.00;100821.59;4988435;28;20160;-65
2024/01/16 09:30:42;;;;;;;14.93;5.68;;;;;;;0.19;100.00;100820.81;4988987;28;20061;-67
2024/01/16 09:33:10;;;;;;;17.33;5.68;;;;;;;0.22;100.00;100815.63;4988645;28;20073;-67
2024/01/16 09:35:38;;;;;;;11.32;4.47;;;;;;;0.25;100.00;100820.88;4988192;28;20093;-67
2024/01/16 09:38:05;;;;;;;10.52;4.53;;;;;;;0.29;100.00;100820.06;4987843;28;20061;-67
2024/01/16 09:40:32;;;;;;;10.15;4.30;;;;;;;0.35;100.00;100822.72;4986914;28;20069;-67
2024/01/16 09:42:59;;;;;;;12.13;5.47;;;;;;;0.37;100.00;100817.53;4987201;28;20070;-67
2024/01/16 09:45:29;;;;;;;9.98;4.80;;;;;;;0.36;100.00;100815.78;4988075;28;20046;-67
2024/01/16 09:47:59;;;;;;;9.88;5.35;;;;;;;0.38;100.00;100819.28;4987124;28;20109;-67
2024/01/16 09:50:26;;;;;;;42.97;18.70;;;;;;;0.36;100.00;100810.59;4986789;28;20069;-67
2024/01/16 09:52:53;;;;;;;26.30;10.80;;;;;;;0.34;100.00;100812.34;4988056;28;20097;-67
2024/01/16 09:55:25;;;;;;;16.42;9.13;;;;;;;0.34;100.00;100820.97;4988032;28;20121;-67
2024/01/16 09:57:53;;;;;;;16.02;6.70;;;;;;;0.39;100.00;100813.22;4988225;28;20057;-67
2024/01/16 10:00:21;;;;;;;10.20;4.55;;;;;;;0.45;100.00;100814.19;4989413;28;20506;-67
2024/01/16 10:02:50;;;;;;;10.75;4.57;;;;;;;0.55;100.00;100816.88;4988389;28;20418;-67
2024/01/16 10:05:17;;;;;;;16.67;5.18;;;;;;;0.65;100.00;100808.31;4988027;28;20422;-67
2024/01/16 10:07:45;;;;;;;10.38;4.75;;;;;;;0.73;100.00;100809.25;4988773;28;20102;-67
2024/01/16 10:10:12;;;;;;;9.88;4.82;;;;;;;0.79;100.00;100808.47;4989474;28;20125;-67
2024/01/16 10:12:40;;;;;;;8.35;4.43;;;;;;;0.80;100.00;100797.22;4986979;28;20069;-67
2024/01/16 10:15:08;;;;;;;11.48;4.70;;;;;;;0.83;100.00;100789.47;4987949;28;20076;-67
2024/01/16 10:17:42;;;;;;;8.70;4.45;;;;;;;0.85;100.00;100792.97;4989523;28;20056;-67
2024/01/16 10:20:13;;;;;;;10.57;4.28;;;;;;;0.83;100.00;100786.88;4989416;28;20046;-67
2024/01/16 10:22:41;;;;;;;9.23;4.40;;;;;;;0.82;100.00;100798.13;4988440;28;20078;-67
2024/01/16 10:25:19;;;;;;;12.07;4.22;;;;;;;0.77;100.00;100803.25;4988663;28;20042;-67
2024/01/16 10:27:47;;;;;;;8.10;4.47;;;;;;;0.68;100.00;100800.59;4988375;28;20042;-67
2024/01/16 10:30:14;;;;;;;12.63;4.63;;;;;;;0.67;100.00;100797.94;4988463;28;20133;-67
2024/01/16 10:32:43;;;;;;;12.20;5.30;;;;;;;0.66;100.00;100791.03;4989105;28;20050;-67
2024/01/16 10:35:12;;;;;;;9.50;3.97;;;;;;;0.73;100.00;100785.06;4988918;28;20061;-66
2024/01/16 10:37:49;;;;;;;8.30;4.05;;;;;;;0.83;100.00;100778.19;4988182;28;20510;-66
2024/01/16 10:40:29;;;;;;;10.07;3.90;;;;;;;0.90;100.00;100778.28;4989188;28;20073;-67
2024/01/16 10:43:00;;;;;;;9.38;4.40;;;;;;;0.90;100.00;100783.47;4974704;28;20042;-66
2024/01/16 10:45:27;;;;;;;9.02;4.18;;;;;;;0.95;100.00;100769.66;4983903;28;20160;-68
2024/01/16 10:48:03;;;;;;;9.65;4.35;;;;;;;0.99;100.00;100784.41;4970104;28;20098;-67
2024/01/16 10:50:34;;;;;;;9.25;4.13;;;;;;;1.01;100.00;100780.97;4986257;28;20045;-66
2024/01/16 10:53:05;;;;;;;9.82;4.35;;;;;;;1.05;100.00;100772.34;4988353;28;20046;-68
2024/01/16 10:55:48;;;;;;;12.57;4.60;;;;;;;1.10;100.00;100772.38;4988115;28;20124;-67
2024/01/16 10:58:16;;;;;;;9.10;4.30;;;;;;;1.21;100.00;100775.91;4986864;28;20105;-66
2024/01/16 11:00:51;;;;;;;9.25;4.15;;;;;;;1.34;100.00;100774.28;4988788;28;20047;-68
2024/01/16 11:03:33;;;;;;;8.32;4.28;;;;;;;1.46;100.00;100781.28;4988293;28;20156;-68
2024/01/16 11:06:03;;;;;;;10.98;4.53;;;;;;;1.57;100.00;100793.50;4988024;28;20042;-67
2024/01/16 11:08:33;;;;;;;32.83;12.68;;;;;;;1.63;100.00;100791.75;4987767;28;20049;-67
2024/01/16 11:11:03;;;;;;;66.75;21.15;;;;;;;1.65;100.00;100786.59;4987071;28;20051;-68
2024/01/16 11:13:35;;;;;;;50.97;26.75;;;;;;;1.68;100.00;100774.47;4987667;28;20058;-67
2024/01/16 11:16:07;;;;;;;13.75;8.13;;;;;;;1.67;100.00;100779.69;4991975;28;20066;-68